createdAt,value
2023-05-21T21:03:34.333Z,27.90
2023-05-21T21:06:01.365Z,20.30
2023-05-21T21:08:28.244Z,20.00
2023-05-21T21:10:55.180Z,19.80
2023-05-21T21:13:23.145Z,19.70
2023-05-21T21:15:50.147Z,19.60
2023-05-21T21:18:17.601Z,19.70
2023-05-21T21:20:49.461Z,19.70
2023-05-21T21:23:16.654Z,19.70
2023-05-21T21:25:43.572Z,19.60
2023-05-21T21:28:10.944Z,19.50
2023-05-21T21:30:40.891Z,19.60
2023-05-21T21:33:08.943Z,19.60
2023-05-21T21:35:36.037Z,19.60
2023-05-21T21:38:04.872Z,19.70
2023-05-21T21:40:31.850Z,19.70
2023-05-21T21:42:58.906Z,19.80
2023-05-21T21:45:25.759Z,19.70
2023-05-21T21:47:52.663Z,19.70
2023-05-21T21:50:19.482Z,19.70
2023-05-21T21:52:46.421Z,19.60
2023-05-21T21:55:13.338Z,19.60
2023-05-21T21:57:40.171Z,19.60
2023-05-21T22:00:15.768Z,19.60
2023-05-21T22:02:43.778Z,19.60
2023-05-21T22:05:10.662Z,19.50
2023-05-21T22:07:38.696Z,19.40
2023-05-21T22:10:06.427Z,19.40
2023-05-21T22:12:33.965Z,19.40
2023-05-21T22:15:05.222Z,19.50
2023-05-21T22:17:33.167Z,19.40
2023-05-21T22:20:00.934Z,19.30
2023-05-21T22:22:27.899Z,19.40
2023-05-21T22:24:54.993Z,19.40
2023-05-21T22:27:21.888Z,19.40
2023-05-21T22:29:48.800Z,19.40
2023-05-21T22:32:15.791Z,19.40
2023-05-21T22:34:43.153Z,19.40
2023-05-21T22:37:10.035Z,19.30
2023-05-21T22:39:36.859Z,19.30
2023-05-21T22:42:04.311Z,19.20
2023-05-21T22:44:31.169Z,19.10
2023-05-21T22:47:00.917Z,19.10
2023-05-21T22:49:27.959Z,19.00
2023-05-21T22:51:54.877Z,19.00
2023-05-21T22:54:22.513Z,19.10
2023-05-21T22:56:49.921Z,19.10
2023-05-21T22:59:16.798Z,19.20
2023-05-21T23:01:43.755Z,19.20
2023-05-21T23:04:10.602Z,19.10
2023-05-21T23:06:37.502Z,19.20
2023-05-21T23:09:04.902Z,19.20
2023-05-21T23:11:32.370Z,19.30
2023-05-21T23:13:59.180Z,19.30
2023-05-21T23:16:26.075Z,19.30
2023-05-21T23:18:54.479Z,19.40
2023-05-21T23:21:21.889Z,19.50
2023-05-21T23:23:48.935Z,19.50
2023-05-21T23:26:16.007Z,19.30
2023-05-21T23:28:42.907Z,19.30
2023-05-21T23:31:09.885Z,19.30
2023-05-21T23:33:37.381Z,19.30
2023-05-21T23:36:04.443Z,19.20
2023-05-21T23:38:31.292Z,19.30
2023-05-21T23:40:58.173Z,19.40
2023-05-21T23:43:25.012Z,19.40
2023-05-21T23:45:51.858Z,19.40
2023-05-21T23:48:18.707Z,19.40
2023-05-21T23:50:45.621Z,19.40
2023-05-21T23:53:12.440Z,19.30
2023-05-21T23:55:39.225Z,19.30
2023-05-21T23:58:06.176Z,19.50
